createdAt,value
2024-01-24T00:00:07.145Z,101.76
2024-01-24T00:01:07.225Z,100.41
2024-01-24T00:02:07.135Z,98.80
2024-01-24T00:03:07.156Z,98.95
2024-01-24T00:04:07.232Z,100.07
2024-01-24T00:05:07.157Z,97.40
2024-01-24T00:06:07.098Z,96.53
2024-01-24T00:07:07.098Z,97.46
2024-01-24T00:08:07.077Z,95.83
2024-01-24T00:09:07.115Z,96.74
2024-01-24T00:10:07.158Z,95.41
2024-01-24T00:11:07.071Z,95.27
2024-01-24T00:12:07.111Z,94.11
2024-01-24T00:13:07.101Z,94.75
2024-01-24T00:14:07.100Z,93.96
2024-01-24T00:15:07.165Z,93.63
2024-01-24T00:16:07.194Z,94.31
2024-01-24T00:17:07.234Z,94.97
2024-01-24T00:18:07.384Z,93.41
2024-01-24T00:19:07.369Z,92.81
2024-01-24T00:20:07.295Z,93.69
2024-01-24T00:21:07.297Z,92.88
2024-01-24T00:22:07.365Z,92.74
2024-01-24T00:23:07.260Z,92.50
2024-01-24T00:24:07.265Z,90.00
2024-01-24T00:25:07.242Z,91.27
2024-01-24T00:26:07.226Z,90.62
2024-01-24T00:27:07.234Z,92.10
2024-01-24T00:28:07.218Z,90.52
2024-01-24T00:29:07.226Z,90.25
2024-01-24T00:30:07.214Z,91.17
2024-01-24T00:31:07.216Z,90.60
2024-01-24T00:32:07.206Z,90.51
2024-01-24T00:33:07.210Z,91.14
2024-01-24T00:34:07.441Z,88.52
2024-01-24T00:35:07.181Z,90.75
2024-01-24T00:36:07.192Z,91.99
2024-01-24T00:37:07.167Z,91.42
2024-01-24T00:38:07.183Z,91.66
2024-01-24T00:39:07.166Z,91.98
2024-01-24T00:40:07.180Z,90.18
2024-01-24T00:41:07.160Z,90.31
2024-01-24T00:42:07.161Z,92.64
2024-01-24T00:43:07.139Z,93.16
2024-01-24T00:44:07.127Z,92.50
2024-01-24T00:45:07.172Z,93.63
2024-01-24T00:46:07.118Z,93.98
2024-01-24T00:47:07.103Z,92.33
2024-01-24T00:48:07.203Z,94.79
2024-01-24T00:49:07.170Z,92.38
2024-01-24T00:50:07.112Z,92.21
2024-01-24T00:51:07.098Z,92.42
2024-01-24T00:52:07.079Z,92.37
2024-01-24T00:53:07.075Z,90.53
2024-01-24T00:54:07.103Z,89.68
2024-01-24T00:55:07.077Z,90.74
2024-01-24T00:56:07.083Z,91.45
2024-01-24T00:57:07.092Z,91.08
2024-01-24T00:58:07.083Z,90.52
2024-01-24T00:59:07.061Z,90.40
2024-01-24T01:00:07.041Z,89.88
2024-01-24T01:01:07.154Z,91.03
2024-01-24T01:02:07.050Z,90.48
2024-01-24T01:03:07.075Z,91.38
2024-01-24T01:04:07.117Z,90.09
2024-01-24T01:05:07.050Z,90.75
2024-01-24T01:06:07.060Z,87.76
2024-01-24T01:07:07.048Z,88.71
2024-01-24T01:08:07.051Z,89.27
2024-01-24T01:09:07.083Z,87.47
2024-01-24T01:10:07.153Z,87.92
2024-01-24T01:11:07.074Z,89.16
2024-01-24T01:12:07.086Z,88.47
2024-01-24T01:13:07.086Z,88.24
2024-01-24T01:14:07.119Z,88.73
2024-01-24T01:15:07.123Z,87.72
2024-01-24T01:16:07.104Z,88.98
2024-01-24T01:17:07.105Z,88.19
2024-01-24T01:18:07.197Z,86.16
2024-01-24T01:19:07.212Z,87.09
2024-01-24T01:20:07.094Z,88.62
2024-01-24T01:21:07.091Z,88.06
2024-01-24T01:22:07.139Z,91.06
2024-01-24T01:23:07.077Z,90.27
2024-01-24T01:24:07.125Z,87.05
2024-01-24T01:25:07.101Z,89.55
2024-01-24T01:26:07.093Z,88.62
2024-01-24T01:27:07.104Z,86.20
2024-01-24T01:28:07.089Z,86.40
2024-01-24T01:29:07.112Z,85.06
2024-01-24T01:30:07.087Z,84.96
2024-01-24T01:31:07.095Z,83.00
2024-01-24T01:32:07.133Z,85.12
2024-01-24T01:33:07.226Z,82.26
2024-01-24T01:34:07.143Z,84.58
2024-01-24T01:35:07.078Z,82.95
2024-01-24T01:36:17.270Z,83.13
2024-01-24T01:37:08.143Z,83.23
2024-01-24T01:38:07.058Z,83.50
2024-01-24T01:39:07.085Z,83.58
2024-01-24T01:40:07.038Z,84.55
2024-01-24T01:41:07.009Z,84.28
2024-01-24T01:42:07.027Z,85.37
2024-01-24T01:43:07.845Z,83.64
2024-01-24T01:44:06.993Z,86.07
2024-01-24T01:45:07.006Z,84.75
2024-01-24T01:46:06.992Z,84.34
2024-01-24T01:47:06.982Z,83.85
2024-01-24T01:48:07.043Z,84.04
2024-01-24T01:49:07.096Z,84.24
2024-01-24T01:50:07.838Z,84.06
2024-01-24T01:51:06.946Z,83.79
2024-01-24T01:52:06.935Z,84.81
2024-01-24T01:53:06.915Z,83.70
2024-01-24T01:54:06.902Z,82.82
2024-01-24T01:55:06.917Z,84.18
2024-01-24T01:56:06.896Z,81.32
2024-01-24T01:57:06.902Z,82.44
2024-01-24T01:58:06.873Z,80.08
2024-01-24T01:59:06.863Z,81.30
2024-01-24T02:00:06.903Z,80.63
2024-01-24T02:01:06.974Z,78.87
2024-01-24T02:02:06.855Z,80.41
2024-01-24T02:03:06.931Z,79.06
2024-01-24T02:04:06.892Z,79.06
2024-01-24T02:05:06.797Z,79.06
2024-01-24T02:06:06.818Z,79.06
2024-01-24T02:07:06.889Z,79.06
2024-01-24T02:08:06.773Z,79.06
2024-01-24T02:09:06.829Z,79.06
2024-01-24T02:10:06.761Z,79.06
2024-01-24T02:11:06.747Z,79.06
2024-01-24T02:12:06.778Z,79.06
2024-01-24T02:13:06.789Z,79.06
2024-01-24T02:14:06.799Z,79.06
2024-01-24T02:15:06.844Z,79.06
2024-01-24T02:16:06.887Z,79.06
2024-01-24T02:17:06.911Z,79.06
2024-01-24T02:18:07.033Z,79.06
2024-01-24T02:19:07.102Z,79.06
2024-01-24T02:20:07.130Z,79.06
2024-01-24T02:21:07.020Z,79.06
2024-01-24T02:22:07.074Z,79.06
2024-01-24T02:23:07.083Z,79.06
2024-01-24T02:24:07.110Z,79.06
2024-01-24T02:25:07.133Z,79.06
2024-01-24T02:26:07.166Z,79.06
2024-01-24T02:27:07.229Z,79.06
2024-01-24T02:28:07.329Z,79.06
2024-01-24T02:29:07.273Z,79.06
2024-01-24T02:30:07.281Z,79.06
2024-01-24T02:31:07.302Z,79.06
2024-01-24T02:32:07.393Z,79.06
2024-01-24T02:33:07.437Z,79.06
2024-01-24T02:34:07.457Z,79.06
2024-01-24T02:35:07.410Z,79.06
2024-01-24T02:36:07.435Z,79.06
2024-01-24T02:37:07.490Z,79.06
2024-01-24T02:38:07.493Z,79.06
2024-01-24T02:39:07.543Z,79.06
2024-01-24T02:40:07.604Z,79.06
2024-01-24T02:41:07.603Z,79.06
2024-01-24T02:42:07.641Z,79.06
2024-01-24T02:43:07.668Z,79.06
2024-01-24T02:44:07.691Z,79.06
2024-01-24T02:45:07.791Z,79.06
2024-01-24T02:46:07.677Z,79.06
2024-01-24T02:47:07.669Z,79.06
2024-01-24T02:48:07.692Z,79.06
2024-01-24T02:49:07.756Z,79.06
2024-01-24T02:50:07.619Z,79.06
2024-01-24T02:51:07.627Z,79.06
2024-01-24T02:52:07.602Z,79.06
2024-01-24T02:53:07.589Z,79.06
2024-01-24T02:54:07.555Z,79.06
2024-01-24T02:55:07.559Z,79.06
2024-01-24T02:56:07.535Z,79.06
2024-01-24T02:57:07.544Z,79.06
2024-01-24T02:58:07.530Z,79.06
2024-01-24T02:59:07.532Z,79.06
2024-01-24T03:00:07.520Z,79.06
2024-01-24T03:01:07.685Z,79.06
2024-01-24T03:02:07.502Z,79.06
2024-01-24T03:03:07.536Z,79.06
2024-01-24T03:04:07.562Z,79.06
2024-01-24T03:05:07.476Z,79.06
2024-01-24T03:06:07.479Z,79.06
2024-01-24T03:07:07.526Z,79.06
2024-01-24T03:08:07.476Z,79.06
2024-01-24T03:09:07.430Z,79.06
2024-01-24T03:10:07.397Z,79.06
2024-01-24T03:11:07.392Z,79.06
2024-01-24T03:12:07.397Z,79.06
2024-01-24T03:13:07.463Z,79.06
2024-01-24T03:14:07.359Z,79.06
2024-01-24T03:15:07.395Z,79.06
2024-01-24T03:16:07.330Z,79.06
2024-01-24T03:17:07.324Z,79.06
2024-01-24T03:18:07.389Z,79.06
2024-01-24T03:19:07.430Z,79.06
2024-01-24T03:20:07.297Z,79.06
2024-01-24T03:21:07.290Z,79.06
2024-01-24T03:22:07.279Z,79.06
2024-01-24T03:23:07.257Z,79.06
2024-01-24T03:24:07.866Z,79.06
2024-01-24T03:25:07.243Z,79.06
2024-01-24T03:26:07.242Z,79.06
2024-01-24T03:27:07.204Z,79.06
2024-01-24T03:28:07.197Z,79.06
2024-01-24T03:29:07.189Z,79.06
2024-01-24T03:30:07.199Z,79.06
2024-01-24T03:31:07.173Z,79.06
2024-01-24T03:32:07.156Z,79.06
2024-01-24T03:33:07.242Z,79.06
2024-01-24T03:34:07.339Z,79.06
2024-01-24T03:35:07.286Z,79.06
2024-01-24T03:36:07.111Z,79.06
2024-01-24T03:37:07.103Z,79.06
2024-01-24T03:38:07.085Z,79.06
2024-01-24T03:39:07.090Z,79.06
2024-01-24T03:40:07.050Z,79.06
2024-01-24T03:41:07.054Z,79.06
2024-01-24T03:42:07.064Z,79.06
2024-01-24T03:43:07.025Z,79.06
2024-01-24T03:44:07.154Z,79.06
2024-01-24T03:45:06.993Z,79.06
2024-01-24T03:46:06.999Z,79.06
2024-01-24T03:47:06.974Z,79.06
2024-01-24T03:48:07.047Z,79.06
2024-01-24T03:49:07.072Z,79.06
2024-01-24T03:50:06.937Z,79.06
2024-01-24T03:51:06.943Z,79.06
2024-01-24T03:52:06.964Z,79.06
2024-01-24T03:53:06.992Z,79.06
2024-01-24T03:54:07.054Z,79.06
2024-01-24T03:55:07.043Z,79.06
2024-01-24T03:56:07.073Z,79.06
2024-01-24T03:57:07.083Z,79.06
2024-01-24T03:58:07.102Z,79.06
2024-01-24T03:59:07.155Z,79.06
2024-01-24T04:00:07.234Z,79.06
2024-01-24T04:01:07.294Z,79.06
2024-01-24T04:02:09.241Z,79.06
2024-01-24T04:03:07.256Z,79.06
2024-01-24T04:04:07.364Z,79.06
2024-01-24T04:05:07.303Z,79.06
2024-01-24T04:06:07.363Z,79.06
2024-01-24T04:07:07.421Z,79.06
2024-01-24T04:08:07.374Z,79.06
2024-01-24T04:09:07.397Z,79.06
2024-01-24T04:10:07.438Z,79.06
2024-01-24T04:11:07.459Z,79.06
2024-01-24T04:12:07.478Z,79.06
2024-01-24T04:13:07.504Z,79.06
2024-01-24T04:14:07.725Z,79.06
2024-01-24T04:15:07.574Z,79.06
2024-01-24T04:16:07.653Z,79.06
2024-01-24T04:17:07.616Z,79.06
2024-01-24T04:18:07.746Z,79.06
2024-01-24T04:19:07.787Z,79.06
2024-01-24T04:20:07.720Z,79.06
2024-01-24T04:21:07.739Z,79.06
2024-01-24T04:22:07.776Z,79.06
2024-01-24T04:23:07.803Z,79.06
2024-01-24T04:24:07.851Z,79.06
2024-01-24T04:25:07.859Z,79.06
2024-01-24T04:26:07.838Z,79.06
2024-01-24T04:27:07.869Z,79.06
2024-01-24T04:28:07.826Z,79.06
2024-01-24T04:29:10.826Z,79.06
2024-01-24T04:30:08.790Z,79.06
2024-01-24T04:31:16.028Z,50.00
2024-01-24T04:32:16.032Z,50.00
2024-01-24T04:33:16.168Z,50.00
2024-01-24T04:34:16.087Z,50.00
2024-01-24T04:35:16.029Z,50.00
2024-01-24T04:36:16.062Z,0.00
2024-01-24T04:37:16.063Z,0.00
2024-01-24T04:38:16.053Z,0.00
2024-01-24T04:39:16.078Z,0.00
2024-01-24T04:40:16.060Z,0.00
2024-01-24T04:41:16.050Z,0.00
2024-01-24T04:42:17.164Z,0.00
2024-01-24T04:43:16.047Z,0.00
2024-01-24T04:44:16.329Z,0.00
2024-01-24T04:45:16.073Z,0.00
2024-01-24T04:46:16.043Z,0.00
2024-01-24T04:47:16.052Z,0.00
2024-01-24T04:48:16.122Z,0.00
2024-01-24T04:49:26.377Z,0.00
2024-01-24T04:50:17.169Z,0.00
2024-01-24T04:51:16.091Z,0.00
2024-01-24T04:52:16.100Z,0.00
2024-01-24T04:53:16.105Z,0.00
2024-01-24T04:54:16.135Z,0.00
2024-01-24T04:55:16.097Z,0.00
2024-01-24T04:56:16.115Z,0.00
2024-01-24T04:57:16.119Z,0.00
2024-01-24T04:58:16.087Z,0.00
2024-01-24T04:59:16.095Z,0.00
2024-01-24T05:00:16.154Z,0.00
2024-01-24T05:01:16.224Z,0.00
2024-01-24T05:02:16.221Z,0.00
2024-01-24T05:03:16.299Z,0.00
2024-01-24T05:04:16.387Z,0.00
2024-01-24T05:05:16.397Z,3.17
2024-01-24T05:06:16.527Z,20.26
2024-01-24T05:07:16.685Z,38.97
2024-01-24T05:08:16.530Z,50.54
2024-01-24T05:09:16.615Z,51.12
2024-01-24T05:10:16.635Z,51.41
2024-01-24T05:11:16.694Z,51.56
2024-01-24T05:12:16.812Z,50.67
2024-01-24T05:13:16.823Z,50.16
2024-01-24T05:14:16.890Z,49.97
2024-01-24T05:15:16.983Z,50.00
2024-01-24T05:16:17.033Z,51.55
2024-01-24T05:17:17.146Z,52.39
2024-01-24T05:18:17.308Z,50.13
2024-01-24T05:19:17.452Z,51.22
2024-01-24T05:20:17.337Z,50.92
2024-01-24T05:21:17.396Z,52.15
2024-01-24T05:22:17.467Z,51.15
2024-01-24T05:23:17.551Z,52.23
2024-01-24T05:24:17.619Z,51.09
2024-01-24T05:25:17.680Z,51.45
2024-01-24T05:26:17.723Z,52.78
2024-01-24T05:27:17.872Z,51.23
2024-01-24T05:28:17.868Z,50.05
2024-01-24T05:29:17.925Z,50.00
2024-01-24T05:30:29.512Z,53.66
2024-01-24T05:31:19.019Z,53.68
2024-01-24T05:32:18.041Z,53.70
2024-01-24T05:33:18.060Z,53.21
2024-01-24T05:34:18.078Z,51.97
2024-01-24T05:35:18.035Z,53.16
2024-01-24T05:36:18.007Z,51.87
2024-01-24T05:37:17.992Z,53.86
2024-01-24T05:38:18.035Z,53.40
2024-01-24T05:39:18.043Z,52.61
2024-01-24T05:40:18.035Z,52.77
2024-01-24T05:41:18.041Z,51.44
2024-01-24T05:42:18.110Z,52.06
2024-01-24T05:43:18.106Z,52.06
2024-01-24T05:44:18.161Z,52.63
2024-01-24T05:45:18.222Z,50.99
2024-01-24T05:46:18.265Z,51.67
2024-01-24T05:47:18.364Z,53.53
2024-01-24T05:48:18.574Z,50.95
2024-01-24T05:49:18.560Z,53.11
2024-01-24T05:50:18.536Z,52.97
2024-01-24T05:51:18.580Z,52.54
2024-01-24T05:52:18.593Z,54.23
2024-01-24T05:53:18.653Z,54.29
2024-01-24T05:54:18.741Z,51.51
2024-01-24T05:55:19.674Z,53.64
2024-01-24T05:56:18.793Z,51.43
2024-01-24T05:57:18.903Z,52.16
2024-01-24T05:58:18.905Z,53.06
2024-01-24T05:59:18.934Z,54.35
2024-01-24T06:00:19.136Z,52.90
2024-01-24T06:01:19.311Z,54.27
2024-01-24T06:02:19.142Z,55.19
2024-01-24T06:03:19.692Z,55.04
2024-01-24T06:04:19.419Z,56.61
2024-01-24T06:05:19.494Z,55.68
2024-01-24T06:06:19.545Z,57.50
2024-01-24T06:07:19.585Z,54.47
2024-01-24T06:08:19.585Z,56.47
2024-01-24T06:09:19.654Z,55.83
2024-01-24T06:10:19.729Z,55.95
2024-01-24T06:11:19.792Z,55.56
2024-01-24T06:12:19.909Z,55.76
2024-01-24T06:13:19.922Z,56.34
2024-01-24T06:14:20.004Z,54.27
2024-01-24T06:15:20.146Z,56.01
2024-01-24T06:16:20.157Z,53.52
2024-01-24T06:17:20.252Z,54.79
2024-01-24T06:18:20.426Z,55.08
2024-01-24T06:19:20.433Z,53.45
2024-01-24T06:20:20.420Z,55.33
2024-01-24T06:21:20.522Z,54.21
2024-01-24T06:22:20.631Z,56.60
2024-01-24T06:23:20.621Z,56.02
2024-01-24T06:24:21.945Z,56.90
2024-01-24T06:25:20.711Z,56.13
2024-01-24T06:26:21.675Z,57.58
2024-01-24T06:27:21.215Z,57.79
2024-01-24T06:28:20.782Z,55.79
2024-01-24T06:30:14.749Z,50.58
2024-01-24T06:30:23.895Z,45.33
2024-01-24T06:31:20.913Z,47.68
2024-01-24T06:32:21.216Z,46.35
2024-01-24T06:33:20.836Z,43.05
2024-01-24T06:34:20.987Z,40.97
2024-01-24T06:35:20.942Z,37.81
2024-01-24T06:36:20.776Z,51.18
2024-01-24T06:37:20.900Z,51.18
2024-01-24T06:38:20.874Z,51.21
2024-01-24T06:39:20.810Z,50.53
2024-01-24T06:40:21.009Z,52.03
2024-01-24T06:41:20.784Z,53.46
2024-01-24T06:42:20.853Z,59.06
2024-01-24T06:43:21.168Z,61.75
2024-01-24T06:44:20.821Z,65.66
2024-01-24T06:45:20.990Z,67.32
2024-01-24T06:46:20.793Z,68.55
2024-01-24T06:47:20.813Z,68.86
2024-01-24T06:48:20.860Z,71.01
2024-01-24T06:49:20.868Z,72.95
2024-01-24T06:50:20.871Z,74.62
2024-01-24T06:51:20.897Z,74.52
2024-01-24T06:52:20.885Z,73.31
2024-01-24T06:53:20.810Z,75.19
2024-01-24T06:54:20.865Z,78.07
2024-01-24T06:55:20.934Z,77.56
2024-01-24T06:56:20.808Z,80.84
2024-01-24T06:57:20.945Z,82.24
2024-01-24T06:58:20.904Z,84.02
2024-01-24T06:59:20.940Z,83.80
2024-01-24T07:00:21.007Z,83.92
2024-01-24T07:01:21.088Z,86.72
2024-01-24T07:02:21.142Z,88.80
2024-01-24T07:03:23.474Z,87.71
2024-01-24T07:04:21.551Z,91.88
2024-01-24T07:05:21.457Z,93.25
2024-01-24T07:06:21.578Z,96.16
2024-01-24T07:07:21.622Z,94.58
2024-01-24T07:08:21.589Z,96.67
2024-01-24T07:09:21.712Z,96.19
2024-01-24T07:10:21.694Z,99.69
2024-01-24T07:11:21.748Z,100.96
2024-01-24T07:12:21.959Z,102.84
2024-01-24T07:13:21.837Z,103.88
2024-01-24T07:14:21.872Z,104.68
2024-01-24T07:15:21.968Z,105.14
2024-01-24T07:16:22.009Z,104.07
2024-01-24T07:17:22.146Z,106.76
2024-01-24T07:18:22.189Z,108.02
2024-01-24T07:19:22.245Z,111.44
2024-01-24T07:20:22.153Z,110.68
2024-01-24T07:21:22.260Z,110.47
2024-01-24T07:22:22.237Z,111.21
2024-01-24T07:23:22.290Z,110.92
2024-01-24T07:24:22.373Z,112.13
2024-01-24T07:25:22.449Z,112.94
2024-01-24T07:26:22.432Z,112.59
2024-01-24T07:27:22.530Z,114.12
2024-01-24T07:28:22.499Z,115.00
2024-01-24T07:29:22.537Z,115.87
2024-01-24T07:30:22.607Z,114.71
2024-01-24T07:31:23.278Z,115.44
2024-01-24T07:32:22.724Z,117.63
2024-01-24T07:33:25.340Z,117.70
2024-01-24T07:34:22.890Z,116.76
2024-01-24T07:35:22.705Z,117.06
2024-01-24T07:36:22.700Z,115.84
2024-01-24T07:37:22.727Z,117.97
2024-01-24T07:38:22.692Z,120.95
2024-01-24T07:39:22.727Z,121.35
2024-01-24T07:40:22.684Z,120.97
2024-01-24T07:41:22.699Z,122.65
2024-01-24T07:42:22.741Z,123.13
2024-01-24T07:43:22.710Z,122.78
2024-01-24T07:44:22.699Z,124.73
2024-01-24T07:45:22.704Z,123.95
2024-01-24T07:46:22.693Z,127.10
2024-01-24T07:47:22.691Z,127.42
2024-01-24T07:48:22.765Z,132.16
2024-01-24T07:49:22.829Z,135.95
2024-01-24T07:50:22.679Z,138.04
2024-01-24T07:51:22.738Z,138.15
2024-01-24T07:52:32.170Z,141.85
2024-01-24T07:53:23.687Z,141.88
2024-01-24T07:54:22.746Z,142.04
2024-01-24T07:55:28.572Z,141.79
2024-01-24T07:56:26.223Z,141.90
2024-01-24T07:57:22.733Z,141.91
2024-01-24T07:58:22.827Z,142.30
2024-01-24T07:59:22.640Z,142.29
2024-01-24T08:00:22.693Z,142.76
2024-01-24T08:01:23.114Z,143.97
2024-01-24T08:02:22.648Z,145.70
2024-01-24T08:03:22.677Z,145.22
2024-01-24T08:04:22.780Z,143.56
2024-01-24T08:05:22.615Z,143.21
2024-01-24T08:06:23.077Z,142.30
2024-01-24T08:07:22.623Z,142.77
2024-01-24T08:08:22.590Z,144.89
2024-01-24T08:09:22.635Z,142.91
2024-01-24T08:10:22.588Z,144.09
2024-01-24T08:11:22.618Z,144.25
2024-01-24T08:12:22.594Z,144.72
2024-01-24T08:13:22.558Z,144.54
2024-01-24T08:14:22.569Z,146.34
2024-01-24T08:15:22.612Z,144.84
2024-01-24T08:16:22.544Z,144.33
2024-01-24T08:17:22.854Z,143.68
2024-01-24T08:18:22.712Z,144.52
2024-01-24T08:19:22.575Z,144.30
2024-01-24T08:20:22.537Z,145.82
2024-01-24T08:21:22.545Z,145.28
2024-01-24T08:22:22.509Z,148.82
2024-01-24T08:23:26.672Z,146.11
2024-01-24T08:24:23.515Z,146.21
2024-01-24T08:25:22.477Z,146.25
2024-01-24T08:26:22.477Z,142.90
2024-01-24T08:27:22.815Z,133.21
2024-01-24T08:28:22.518Z,130.82
2024-01-24T08:29:29.713Z,127.96
2024-01-24T08:30:23.490Z,128.16
2024-01-24T08:31:22.466Z,128.91
2024-01-24T08:32:22.440Z,131.49
2024-01-24T08:33:22.526Z,135.24
2024-01-24T08:34:22.461Z,142.03
2024-01-24T08:35:22.427Z,141.13
2024-01-24T08:36:22.480Z,141.93
2024-01-24T08:37:22.391Z,143.09
2024-01-24T08:38:22.382Z,139.50
2024-01-24T08:39:22.381Z,139.37
2024-01-24T08:40:22.438Z,136.45
2024-01-24T08:41:22.384Z,138.02
2024-01-24T08:42:22.454Z,135.15
2024-01-24T08:43:22.381Z,133.12
2024-01-24T08:44:22.382Z,135.95
2024-01-24T08:45:22.371Z,134.09
2024-01-24T08:46:22.336Z,133.28
2024-01-24T08:47:22.339Z,131.98
2024-01-24T08:48:22.473Z,135.42
2024-01-24T08:49:22.437Z,134.55
2024-01-24T08:50:22.316Z,136.30
2024-01-24T08:51:22.360Z,136.43
2024-01-24T08:52:22.349Z,135.99
2024-01-24T08:53:22.394Z,134.88
2024-01-24T08:54:22.434Z,134.10
2024-01-24T08:55:22.379Z,136.89
2024-01-24T08:56:22.401Z,136.06
2024-01-24T08:57:22.784Z,136.05
2024-01-24T08:58:22.445Z,138.66
2024-01-24T08:59:22.464Z,136.81
2024-01-24T09:00:22.540Z,134.93
2024-01-24T09:01:22.606Z,137.93
2024-01-24T09:02:22.752Z,139.45
2024-01-24T09:03:22.552Z,139.06
2024-01-24T09:04:22.579Z,139.05
2024-01-24T09:05:22.604Z,138.84
2024-01-24T09:06:22.467Z,140.17
2024-01-24T09:07:22.448Z,141.24
2024-01-24T09:08:22.449Z,136.06
2024-01-24T09:09:22.652Z,138.50
2024-01-24T09:10:22.508Z,139.21
2024-01-24T09:11:23.414Z,141.89
2024-01-24T09:12:22.444Z,141.89
2024-01-24T09:13:22.394Z,141.95
2024-01-24T09:14:22.370Z,142.38
2024-01-24T09:15:22.441Z,141.50
2024-01-24T09:16:22.375Z,139.75
2024-01-24T09:17:22.360Z,140.90
2024-01-24T09:18:22.464Z,140.01
2024-01-24T09:19:22.463Z,139.52
2024-01-24T09:20:22.914Z,140.40
2024-01-24T09:21:22.376Z,138.24
2024-01-24T09:22:22.317Z,136.70
2024-01-24T09:23:22.304Z,136.41
2024-01-24T09:24:22.287Z,138.30
2024-01-24T09:25:22.323Z,138.32
2024-01-24T09:26:22.312Z,138.06
2024-01-24T09:27:22.337Z,134.02
2024-01-24T09:28:22.330Z,125.58
2024-01-24T09:29:22.332Z,117.32
2024-01-24T09:30:22.386Z,109.00
2024-01-24T09:31:22.420Z,103.92
2024-01-24T09:32:22.378Z,98.68
2024-01-24T09:33:22.539Z,91.05
2024-01-24T09:34:22.599Z,84.62
2024-01-24T09:35:23.020Z,80.43
2024-01-24T09:36:23.298Z,71.17
2024-01-24T09:37:22.766Z,66.09
2024-01-24T09:38:22.508Z,61.01
2024-01-24T09:39:22.578Z,56.31
2024-01-24T09:40:22.609Z,51.60
2024-01-24T09:41:22.568Z,50.39
2024-01-24T09:42:22.668Z,50.20
2024-01-24T09:43:22.611Z,49.07
2024-01-24T09:44:22.670Z,55.61
2024-01-24T09:45:22.721Z,52.73
2024-01-24T09:46:22.760Z,52.09
2024-01-24T09:47:23.288Z,53.09
2024-01-24T09:48:22.985Z,56.39
2024-01-24T09:49:22.937Z,56.73
2024-01-24T09:50:22.917Z,62.39
2024-01-24T09:51:22.986Z,66.36
2024-01-24T09:52:22.991Z,72.43
2024-01-24T09:53:22.981Z,77.70
2024-01-24T09:54:23.041Z,81.12
2024-01-24T09:55:23.078Z,80.58
2024-01-24T09:56:23.216Z,83.87
2024-01-24T09:57:23.285Z,79.36
2024-01-24T09:58:23.387Z,84.51
2024-01-24T09:59:23.371Z,89.54
2024-01-24T10:00:23.448Z,88.09
2024-01-24T10:01:23.588Z,90.13
2024-01-24T10:02:23.546Z,89.52
2024-01-24T10:03:23.586Z,95.50
2024-01-24T10:04:23.736Z,97.93
2024-01-24T10:05:23.672Z,99.67
2024-01-24T10:06:23.778Z,100.64
2024-01-24T10:07:23.846Z,100.83
2024-01-24T10:08:23.791Z,100.71
2024-01-24T10:09:23.860Z,101.17
2024-01-24T10:10:23.843Z,104.86
2024-01-24T10:11:23.889Z,105.98
2024-01-24T10:12:23.958Z,106.75
2024-01-24T10:13:23.909Z,107.23
2024-01-24T10:14:23.910Z,107.84
2024-01-24T10:15:23.967Z,108.34
2024-01-24T10:16:23.937Z,108.19
2024-01-24T10:17:23.952Z,109.64
2024-01-24T10:18:24.014Z,110.43
2024-01-24T10:19:24.038Z,111.90
2024-01-24T10:20:23.935Z,110.71
2024-01-24T10:21:24.093Z,108.03
2024-01-24T10:22:24.325Z,112.16
2024-01-24T10:23:23.946Z,115.14
2024-01-24T10:24:24.033Z,112.24
2024-01-24T10:25:23.987Z,111.21
2024-01-24T10:26:24.075Z,113.99
2024-01-24T10:27:24.410Z,112.45
2024-01-24T10:28:24.015Z,108.69
2024-01-24T10:29:24.038Z,107.55
2024-01-24T10:30:24.024Z,113.02
2024-01-24T10:31:24.003Z,113.09
2024-01-24T10:32:24.286Z,116.89
2024-01-24T10:33:24.291Z,118.19
2024-01-24T10:34:24.105Z,121.97
2024-01-24T10:35:24.126Z,127.36
2024-01-24T10:36:27.762Z,127.51
2024-01-24T10:37:25.380Z,127.64
2024-01-24T10:38:23.965Z,128.13
2024-01-24T10:39:24.009Z,128.21
2024-01-24T10:40:23.960Z,130.00
2024-01-24T10:41:23.952Z,127.01
2024-01-24T10:42:24.015Z,127.63
2024-01-24T10:43:23.978Z,125.95
2024-01-24T10:44:23.942Z,127.90
2024-01-24T10:45:24.210Z,128.13
2024-01-24T10:46:23.978Z,127.74
2024-01-24T10:47:24.018Z,128.48
2024-01-24T10:48:24.400Z,127.82
2024-01-24T10:49:24.089Z,126.97
2024-01-24T10:50:23.965Z,129.07
2024-01-24T10:51:24.008Z,131.44
2024-01-24T10:52:23.921Z,133.42
2024-01-24T10:53:23.977Z,134.68
2024-01-24T10:54:23.961Z,135.13
2024-01-24T10:55:23.934Z,136.25
2024-01-24T10:56:23.899Z,135.90
2024-01-24T10:57:23.913Z,134.49
2024-01-24T10:58:23.886Z,136.53
2024-01-24T10:59:23.863Z,136.82
2024-01-24T11:00:24.028Z,139.99
2024-01-24T11:01:23.990Z,141.96
2024-01-24T11:02:23.839Z,143.78
2024-01-24T11:03:23.931Z,145.12
2024-01-24T11:04:23.903Z,142.65
2024-01-24T11:05:23.896Z,142.69
2024-01-24T11:06:23.805Z,140.68
2024-01-24T11:07:23.772Z,142.01
2024-01-24T11:08:35.908Z,138.01
2024-01-24T11:09:24.892Z,137.69
2024-01-24T11:10:23.876Z,135.39
2024-01-24T11:11:24.004Z,134.79
2024-01-24T11:12:24.101Z,126.79
2024-01-24T11:13:24.053Z,118.92
2024-01-24T11:14:24.048Z,110.37
2024-01-24T11:15:24.168Z,107.34
2024-01-24T11:16:24.077Z,100.30
2024-01-24T11:17:24.106Z,94.68
2024-01-24T11:18:24.352Z,95.75
2024-01-24T11:19:24.540Z,91.52
2024-01-24T11:20:24.217Z,87.69
2024-01-24T11:21:24.302Z,84.03
2024-01-24T11:22:29.665Z,81.60
2024-01-24T11:23:25.793Z,81.63
2024-01-24T11:24:24.325Z,82.54
2024-01-24T11:25:24.324Z,84.53
2024-01-24T11:26:24.328Z,92.71
2024-01-24T11:27:24.353Z,107.26
2024-01-24T11:28:24.787Z,115.95
2024-01-24T11:29:24.323Z,122.12
2024-01-24T11:30:24.393Z,126.31
2024-01-24T11:31:24.365Z,116.94
2024-01-24T11:32:24.354Z,110.76
2024-01-24T11:33:24.456Z,105.62
2024-01-24T11:34:24.422Z,107.20
2024-01-24T11:35:24.339Z,110.47
2024-01-24T11:36:24.417Z,114.47
2024-01-24T11:37:24.337Z,118.04
2024-01-24T11:38:26.798Z,116.52
2024-01-24T11:39:24.426Z,116.53
2024-01-24T11:40:24.342Z,115.57
2024-01-24T11:41:24.345Z,116.43
2024-01-24T11:42:24.370Z,116.29
2024-01-24T11:43:24.327Z,114.64
2024-01-24T11:44:24.309Z,114.77
2024-01-24T11:45:24.337Z,117.37
2024-01-24T11:46:24.375Z,115.84
2024-01-24T11:47:24.395Z,116.98
2024-01-24T11:48:24.423Z,116.79
2024-01-24T11:49:24.364Z,115.07
2024-01-24T11:50:24.296Z,118.56
2024-01-24T11:51:24.297Z,117.33
2024-01-24T11:52:24.286Z,119.33
2024-01-24T11:53:24.272Z,121.21
2024-01-24T11:54:24.358Z,121.88
2024-01-24T11:55:24.280Z,120.84
2024-01-24T11:56:26.155Z,121.29
2024-01-24T11:57:24.302Z,122.60
2024-01-24T11:58:24.244Z,123.93
2024-01-24T11:59:24.224Z,126.42
2024-01-24T12:00:24.260Z,126.07
2024-01-24T12:01:24.232Z,120.11
2024-01-24T12:02:24.242Z,118.29
2024-01-24T12:03:24.224Z,113.69
2024-01-24T12:04:24.345Z,115.23
2024-01-24T12:05:24.193Z,115.27
2024-01-24T12:06:24.275Z,117.33
2024-01-24T12:07:24.237Z,103.58
2024-01-24T12:08:24.218Z,92.36
2024-01-24T12:09:24.277Z,83.09
2024-01-24T12:10:24.239Z,78.03
2024-01-24T12:11:24.248Z,70.21
2024-01-24T12:12:25.342Z,64.42
2024-01-24T12:13:24.400Z,64.43
2024-01-24T12:14:24.295Z,63.93
2024-01-24T12:15:24.366Z,66.97
2024-01-24T12:16:24.291Z,70.30
2024-01-24T12:17:24.309Z,77.28
2024-01-24T12:18:24.461Z,82.80
2024-01-24T12:19:24.487Z,87.21
2024-01-24T12:20:24.562Z,85.89
2024-01-24T12:21:25.622Z,86.63
2024-01-24T12:22:24.376Z,84.62
2024-01-24T12:23:24.340Z,80.33
2024-01-24T12:24:24.352Z,78.46
2024-01-24T12:25:24.327Z,75.57
2024-01-24T12:26:24.341Z,74.59
2024-01-24T12:27:24.351Z,72.23
2024-01-24T12:28:24.994Z,71.09
2024-01-24T12:29:24.338Z,68.88
2024-01-24T12:30:24.387Z,66.33
2024-01-24T12:31:24.355Z,63.47
2024-01-24T12:32:25.424Z,63.54
2024-01-24T12:33:24.474Z,62.22
2024-01-24T12:34:24.432Z,59.73
2024-01-24T12:35:24.513Z,60.76
2024-01-24T12:36:24.329Z,61.29
2024-01-24T12:37:24.304Z,58.58
2024-01-24T12:38:24.314Z,56.35
2024-01-24T12:39:24.496Z,57.69
2024-01-24T12:40:24.315Z,55.88
2024-01-24T12:41:24.310Z,55.13
2024-01-24T12:42:24.325Z,52.27
2024-01-24T12:43:25.679Z,54.56
2024-01-24T12:44:24.395Z,56.08
2024-01-24T12:45:24.338Z,56.77